In Rescue
 
Open Full Screen Window  High Contrast Mode
July 22, 2019 5:00 PM EDT
Present Weather: Light Rain
Weather Information
Wind Direction
  ---
Wind Speed
  00 kt (0 mph)
Wind Gust
  00 kt (0 mph)
Altimeter
29.96 in
Visibility
5 SM
Temperature
21° C
70° F
Dewpoint
20° C
68° F
Humidity
94%
1hr Rain Fall
00.00 in.
24hr Rain Fall
00.36 in.
Sky Condition
Overcast @ 4,600 ft
Broken @ 2,900 ft
Scattered @ 2,400 ft
MVFR

METAR KI19 222100Z AUTO 00000KT 5SM -RA SCT024 BKN029 OVC046 21/20 A2996 RMK AO2 T02070195

FAA Disclaimer: The data displayed is for advisory purposes only and is not to be used for flight planning or operations.